sensor_id;sensor_type;location;lat;lon;timestamp;temperature;humidity
16578;DHT22;8401;52.528;13.340;2022-09-30T00:00:13;9.20;99.90
16578;DHT22;8401;52.528;13.340;2022-09-30T00:02:38;9.10;99.90
16578;DHT22;8401;52.528;13.340;2022-09-30T00:05:04;9.10;99.90
16578;DHT22;8401;52.528;13.340;2022-09-30T00:07:30;9.10;99.90
16578;DHT22;8401;52.528;13.340;2022-09-30T00:09:55;9.10;99.90
16578;DHT22;8401;52.528;13.340;2022-09-30T00:12:21;9.10;99.90
16578;DHT22;8401;52.528;13.340;2022-09-30T00:14:47;9.10;99.90
16578;DHT22;8401;52.528;13.340;2022-09-30T00:17:13;9.10;99.90
16578;DHT22;8401;52.528;13.340;2022-09-30T00:19:38;9.10;99.90
16578;DHT22;8401;52.528;13.340;2022-09-30T00:22:04;9.00;99.90
16578;DHT22;8401;52.528;13.340;2022-09-30T00:24:29;9.00;99.90
16578;DHT22;8401;52.528;13.340;2022-09-30T00:26:55;9.00;99.90
16578;DHT22;8401;52.528;13.340;2022-09-30T00:29:21;9.00;99.90
16578;DHT22;8401;52.528;13.340;2022-09-30T00:31:46;9.00;99.90
16578;DHT22;8401;52.528;13.340;2022-09-30T00:34:12;9.00;99.90
16578;DHT22;8401;52.528;13.340;2022-09-30T00:36:49;9.00;99.90
16578;DHT22;8401;52.528;13.340;2022-09-30T00:39:17;8.90;99.90
16578;DHT22;8401;52.528;13.340;2022-09-30T00:41:45;8.90;99.90
16578;DHT22;8401;52.528;13.340;2022-09-30T00:44:42;8.80;99.90
16578;DHT22;8401;52.528;13.340;2022-09-30T00:50:02;8.90;99.90
16578;DHT22;8401;52.528;13.340;2022-09-30T00:52:29;8.80;99.90
16578;DHT22;8401;52.528;13.340;2022-09-30T00:54:57;8.80;99.90
16578;DHT22;8401;52.528;13.340;2022-09-30T00:57:24;8.90;99.90
16578;DHT22;8401;52.528;13.340;2022-09-30T00:59:50;8.80;99.90
16578;DHT22;8401;52.528;13.340;2022-09-30T01:02:16;8.80;99.90
16578;DHT22;8401;52.528;13.340;2022-09-30T01:04:43;8.80;99.90
16578;DHT22;8401;52.528;13.340;2022-09-30T01:07:11;8.80;99.90
16578;DHT22;8401;52.528;13.340;2022-09-30T01:09:40;8.80;99.90
16578;DHT22;8401;52.528;13.340;2022-09-30T01:12:13;8.70;99.90
16578;DHT22;8401;52.528;13.340;2022-09-30T01:14:39;8.70;99.90
16578;DHT22;8401;52.528;13.340;2022-09-30T01:33:49;8.80;99.90
16578;DHT22;8401;52.528;13.340;2022-09-30T01:41:48;8.90;99.90
16578;DHT22;8401;52.528;13.340;2022-09-30T01:44:53;8.90;99.90
16578;DHT22;8401;52.528;13.340;2022-09-30T01:47:30;8.90;99.90
16578;DHT22;8401;52.528;13.340;2022-09-30T01:50:11;8.70;99.90
16578;DHT22;8401;52.528;13.340;2022-09-30T01:52:43;8.70;99.90
16578;DHT22;8401;52.528;13.340;2022-09-30T01:58:41;8.60;99.90
16578;DHT22;8401;52.528;13.340;2022-09-30T02:01:13;8.60;99.90
16578;DHT22;8401;52.528;13.340;2022-09-30T02:03:47;8.50;99.90
16578;DHT22;8401;52.528;13.340;2022-09-30T02:06:18;8.50;99.90
16578;DHT22;8401;52.528;13.340;2022-09-30T02:09:08;8.50;99.90
16578;DHT22;8401;52.528;13.340;2022-09-30T02:11:36;8.50;99.90
16578;DHT22;8401;52.528;13.340;2022-09-30T02:16:46;8.40;99.90
16578;DHT22;8401;52.528;13.340;2022-09-30T02:19:28;8.50;99.90
16578;DHT22;8401;52.528;13.340;2022-09-30T02:22:00;8.40;99.90
16578;DHT22;8401;52.528;13.340;2022-09-30T02:24:33;8.40;99.90
16578;DHT22;8401;52.528;13.340;2022-09-30T02:27:05;8.40;99.90
16578;DHT22;8401;52.528;13.340;2022-09-30T02:29:35;8.40;99.90
16578;DHT22;8401;52.528;13.340;2022-09-30T02:32:09;8.40;99.90
16578;DHT22;8401;52.528;13.340;2022-09-30T02:34:41;8.40;99.90
16578;DHT22;8401;52.528;13.340;2022-09-30T02:37:18;8.40;99.90
16578;DHT22;8401;52.528;13.340;2022-09-30T02:39:50;8.40;99.90
16578;DHT22;8401;52.528;13.340;2022-09-30T02:42:21;8.30;99.90
16578;DHT22;8401;52.528;13.340;2022-09-30T02:44:51;8.30;99.90
16578;DHT22;8401;52.528;13.340;2022-09-30T02:50:07;8.30;99.90
16578;DHT22;8401;52.528;13.340;2022-09-30T02:55:26;8.30;99.90
16578;DHT22;8401;52.528;13.340;2022-09-30T02:58:16;8.30;99.90
16578;DHT22;8401;52.528;13.340;2022-09-30T03:00:43;8.30;99.90
16578;DHT22;8401;52.528;13.340;2022-09-30T03:03:27;8.20;99.90
16578;DHT22;8401;52.528;13.340;2022-09-30T03:05:54;8.30;99.90
16578;DHT22;8401;52.528;13.340;2022-09-30T03:08:19;8.30;99.90
16578;DHT22;8401;52.528;13.340;2022-09-30T03:10:47;8.20;99.90
16578;DHT22;8401;52.528;13.340;2022-09-30T03:35:25;8.50;99.90
16578;DHT22;8401;52.528;13.340;2022-09-30T03:38:01;8.40;99.90
16578;DHT22;8401;52.528;13.340;2022-09-30T03:40:43;8.40;99.90
16578;DHT22;8401;52.528;13.340;2022-09-30T03:46:33;8.20;99.90
16578;DHT22;8401;52.528;13.340;2022-09-30T03:49:02;8.20;99.90
16578;DHT22;8401;52.528;13.340;2022-09-30T03:51:29;8.20;99.90
16578;DHT22;8401;52.528;13.340;2022-09-30T03:53:57;8.20;99.90
16578;DHT22;8401;52.528;13.340;2022-09-30T03:56:29;8.10;99.90
16578;DHT22;8401;52.528;13.340;2022-09-30T03:58:56;8.20;99.90
16578;DHT22;8401;52.528;13.340;2022-09-30T04:01:22;8.30;99.90
16578;DHT22;8401;52.528;13.340;2022-09-30T04:03:49;8.20;99.90
16578;DHT22;8401;52.528;13.340;2022-09-30T04:06:23;8.20;99.90
16578;DHT22;8401;52.528;13.340;2022-09-30T04:08:49;8.10;99.90
16578;DHT22;8401;52.528;13.340;2022-09-30T04:11:16;8.10;99.90
16578;DHT22;8401;52.528;13.340;2022-09-30T04:13:42;8.10;99.90
16578;DHT22;8401;52.528;13.340;2022-09-30T04:16:08;8.00;99.90
16578;DHT22;8401;52.528;13.340;2022-09-30T04:18:37;8.00;99.90
16578;DHT22;8401;52.528;13.340;2022-09-30T04:21:08;8.10;99.90
16578;DHT22;8401;52.528;13.340;2022-09-30T04:23:38;8.10;99.90
16578;DHT22;8401;52.528;13.340;2022-09-30T04:26:06;8.10;99.90
16578;DHT22;8401;52.528;13.340;2022-09-30T04:28:33;8.30;99.90
16578;DHT22;8401;52.528;13.340;2022-09-30T04:31:02;8.30;99.90
16578;DHT22;8401;52.528;13.340;2022-09-30T04:33:28;8.30;99.90
16578;DHT22;8401;52.528;13.340;2022-09-30T04:35:56;8.40;99.90
16578;DHT22;8401;52.528;13.340;2022-09-30T04:38:22;8.40;99.90
16578;DHT22;8401;52.528;13.340;2022-09-30T04:40:49;8.50;99.90
16578;DHT22;8401;52.528;13.340;2022-09-30T04:43:16;8.30;99.90
16578;DHT22;8401;52.528;13.340;2022-09-30T04:45:43;8.20;99.90
16578;DHT22;8401;52.528;13.340;2022-09-30T04:48:10;8.10;99.90
16578;DHT22;8401;52.528;13.340;2022-09-30T04:50:36;8.10;99.90
16578;DHT22;8401;52.528;13.340;2022-09-30T04:53:01;8.10;99.90
16578;DHT22;8401;52.528;13.340;2022-09-30T04:55:28;8.20;99.90
16578;DHT22;8401;52.528;13.340;2022-09-30T04:57:54;8.10;99.90
16578;DHT22;8401;52.528;13.340;2022-09-30T05:00:20;8.00;99.90
16578;DHT22;8401;52.528;13.340;2022-09-30T05:02:45;7.90;99.90
16578;DHT22;8401;52.528;13.340;2022-09-30T05:05:12;7.90;99.90
16578;DHT22;8401;52.528;13.340;2022-09-30T05:07:37;7.90;99.90
16578;DHT22;8401;52.528;13.340;2022-09-30T05:10:03;7.80;99.90
16578;DHT22;8401;52.528;13.340;2022-09-30T05:12:29;7.90;99.90
16578;DHT22;8401;52.528;13.340;2022-09-30T05:14:56;7.80;99.90
16578;DHT22;8401;52.528;13.340;2022-09-30T05:17:21;7.80;99.90
16578;DHT22;8401;52.528;13.340;2022-09-30T05:19:47;7.80;99.90
16578;DHT22;8401;52.528;13.340;2022-09-30T05:22:13;7.80;99.90
16578;DHT22;8401;52.528;13.340;2022-09-30T05:24:39;7.80;99.90
16578;DHT22;8401;52.528;13.340;2022-09-30T05:27:04;7.80;99.90
16578;DHT22;8401;52.528;13.340;2022-09-30T05:29:31;7.80;99.90
16578;DHT22;8401;52.528;13.340;2022-09-30T05:31:56;7.80;99.90
16578;DHT22;8401;52.528;13.340;2022-09-30T05:34:22;7.90;99.90
16578;DHT22;8401;52.528;13.340;2022-09-30T05:36:48;8.10;99.90
16578;DHT22;8401;52.528;13.340;2022-09-30T05:39:13;8.30;99.90
16578;DHT22;8401;52.528;13.340;2022-09-30T05:41:39;8.40;99.90
16578;DHT22;8401;52.528;13.340;2022-09-30T05:44:05;8.40;99.90
16578;DHT22;8401;52.528;13.340;2022-09-30T05:46:32;8.50;99.90
16578;DHT22;8401;52.528;13.340;2022-09-30T05:48:58;8.50;99.90
16578;DHT22;8401;52.528;13.340;2022-09-30T05:51:24;8.60;99.90
16578;DHT22;8401;52.528;13.340;2022-09-30T05:53:49;8.60;99.90
16578;DHT22;8401;52.528;13.340;2022-09-30T05:56:16;8.60;99.90
16578;DHT22;8401;52.528;13.340;2022-09-30T05:58:43;8.50;99.90
16578;DHT22;8401;52.528;13.340;2022-09-30T06:01:14;8.50;99.90
16578;DHT22;8401;52.528;13.340;2022-09-30T06:03:43;8.60;99.90
16578;DHT22;8401;52.528;13.340;2022-09-30T06:06:09;8.60;99.90
16578;DHT22;8401;52.528;13.340;2022-09-30T06:08:35;8.40;99.90
16578;DHT22;8401;52.528;13.340;2022-09-30T06:11:00;8.30;99.90
16578;DHT22;8401;52.528;13.340;2022-09-30T06:13:27;8.40;99.90
16578;DHT22;8401;52.528;13.340;2022-09-30T06:16:00;8.50;99.90
16578;DHT22;8401;52.528;13.340;2022-09-30T06:18:27;8.40;99.90
16578;DHT22;8401;52.528;13.340;2022-09-30T06:20:57;8.30;99.90
16578;DHT22;8401;52.528;13.340;2022-09-30T06:23:23;8.30;99.90
16578;DHT22;8401;52.528;13.340;2022-09-30T06:25:50;8.40;99.90
16578;DHT22;8401;52.528;13.340;2022-09-30T06:28:16;8.40;99.90
16578;DHT22;8401;52.528;13.340;2022-09-30T06:30:43;8.50;99.90
16578;DHT22;8401;52.528;13.340;2022-09-30T06:33:09;8.80;99.90
16578;DHT22;8401;52.528;13.340;2022-09-30T06:35:35;8.70;99.90
16578;DHT22;8401;52.528;13.340;2022-09-30T06:38:01;8.80;99.90
16578;DHT22;8401;52.528;13.340;2022-09-30T06:40:26;9.10;99.90
16578;DHT22;8401;52.528;13.340;2022-09-30T06:42:57;9.20;99.90
16578;DHT22;8401;52.528;13.340;2022-09-30T06:45:24;9.30;99.90
16578;DHT22;8401;52.528;13.340;2022-09-30T06:47:49;9.30;99.90
16578;DHT22;8401;52.528;13.340;2022-09-30T06:50:19;9.20;99.90
16578;DHT22;8401;52.528;13.340;2022-09-30T06:52:46;9.20;99.90
16578;DHT22;8401;52.528;13.340;2022-09-30T06:55:12;9.30;99.90
16578;DHT22;8401;52.528;13.340;2022-09-30T06:57:39;9.20;99.90
16578;DHT22;8401;52.528;13.340;2022-09-30T07:00:05;9.20;99.90
16578;DHT22;8401;52.528;13.340;2022-09-30T07:02:31;9.30;99.90
16578;DHT22;8401;52.528;13.340;2022-09-30T07:04:58;9.20;99.90
16578;DHT22;8401;52.528;13.340;2022-09-30T07:07:24;9.30;99.90
16578;DHT22;8401;52.528;13.340;2022-09-30T07:09:49;9.50;99.90
16578;DHT22;8401;52.528;13.340;2022-09-30T07:12:16;9.70;99.90
16578;DHT22;8401;52.528;13.340;2022-09-30T07:14:41;9.80;99.90
16578;DHT22;8401;52.528;13.340;2022-09-30T07:17:07;9.70;99.90
16578;DHT22;8401;52.528;13.340;2022-09-30T07:19:33;9.90;99.90
16578;DHT22;8401;52.528;13.340;2022-09-30T07:22:00;10.10;99.90
16578;DHT22;8401;52.528;13.340;2022-09-30T07:24:46;10.20;99.90
16578;DHT22;8401;52.528;13.340;2022-09-30T07:27:11;10.30;99.90
16578;DHT22;8401;52.528;13.340;2022-09-30T07:29:39;10.20;99.90
16578;DHT22;8401;52.528;13.340;2022-09-30T07:32:06;10.50;99.90
16578;DHT22;8401;52.528;13.340;2022-09-30T07:34:31;10.50;99.90
16578;DHT22;8401;52.528;13.340;2022-09-30T07:36:57;10.70;99.90
16578;DHT22;8401;52.528;13.340;2022-09-30T07:39:23;10.80;99.90
16578;DHT22;8401;52.528;13.340;2022-09-30T07:41:49;10.70;99.90
16578;DHT22;8401;52.528;13.340;2022-09-30T07:44:15;11.00;99.90
16578;DHT22;8401;52.528;13.340;2022-09-30T07:46:42;11.00;99.90
16578;DHT22;8401;52.528;13.340;2022-09-30T07:49:12;11.20;99.90
16578;DHT22;8401;52.528;13.340;2022-09-30T07:51:40;11.30;99.90
16578;DHT22;8401;52.528;13.340;2022-09-30T07:54:14;11.20;99.90
16578;DHT22;8401;52.528;13.340;2022-09-30T07:56:40;11.30;99.90
16578;DHT22;8401;52.528;13.340;2022-09-30T07:59:09;11.60;99.90
16578;DHT22;8401;52.528;13.340;2022-09-30T08:01:35;11.90;99.90
16578;DHT22;8401;52.528;13.340;2022-09-30T08:04:03;12.00;99.90
16578;DHT22;8401;52.528;13.340;2022-09-30T08:06:31;11.90;99.90
16578;DHT22;8401;52.528;13.340;2022-09-30T08:08:57;12.00;99.90
16578;DHT22;8401;52.528;13.340;2022-09-30T08:11:25;12.20;99.90
16578;DHT22;8401;52.528;13.340;2022-09-30T08:13:53;12.60;99.90
16578;DHT22;8401;52.528;13.340;2022-09-30T08:16:19;12.70;99.90
16578;DHT22;8401;52.528;13.340;2022-09-30T08:18:45;13.10;99.90
16578;DHT22;8401;52.528;13.340;2022-09-30T08:21:11;13.30;99.90
16578;DHT22;8401;52.528;13.340;2022-09-30T08:23:37;13.40;99.90
16578;DHT22;8401;52.528;13.340;2022-09-30T08:26:05;13.60;99.90
16578;DHT22;8401;52.528;13.340;2022-09-30T08:28:31;13.80;99.90
16578;DHT22;8401;52.528;13.340;2022-09-30T08:31:06;14.00;99.90
16578;DHT22;8401;52.528;13.340;2022-09-30T08:33:33;14.10;99.90
16578;DHT22;8401;52.528;13.340;2022-09-30T08:36:07;14.40;99.90
16578;DHT22;8401;52.528;13.340;2022-09-30T08:38:33;14.50;99.90
16578;DHT22;8401;52.528;13.340;2022-09-30T08:46:46;15.40;99.90
16578;DHT22;8401;52.528;13.340;2022-09-30T08:49:27;17.70;99.90
16578;DHT22;8401;52.528;13.340;2022-09-30T08:51:58;19.70;99.90
16578;DHT22;8401;52.528;13.340;2022-09-30T08:54:29;20.60;99.90
16578;DHT22;8401;52.528;13.340;2022-09-30T08:56:55;20.60;99.90
16578;DHT22;8401;52.528;13.340;2022-09-30T08:59:44;21.00;99.90
16578;DHT22;8401;52.528;13.340;2022-09-30T09:02:32;22.20;99.90
16578;DHT22;8401;52.528;13.340;2022-09-30T09:05:01;23.30;99.90
16578;DHT22;8401;52.528;13.340;2022-09-30T09:07:42;23.90;99.90
16578;DHT22;8401;52.528;13.340;2022-09-30T09:10:22;22.80;99.90
16578;DHT22;8401;52.528;13.340;2022-09-30T09:13:11;23.00;99.90
16578;DHT22;8401;52.528;13.340;2022-09-30T09:18:25;23.30;99.90
16578;DHT22;8401;52.528;13.340;2022-09-30T09:21:03;25.00;99.90
16578;DHT22;8401;52.528;13.340;2022-09-30T09:23:33;24.20;98.00
16578;DHT22;8401;52.528;13.340;2022-09-30T09:25:59;24.40;98.80
16578;DHT22;8401;52.528;13.340;2022-09-30T09:28:48;25.30;95.00
16578;DHT22;8401;52.528;13.340;2022-09-30T09:31:17;25.10;95.20
16578;DHT22;8401;52.528;13.340;2022-09-30T09:33:43;25.40;93.80
16578;DHT22;8401;52.528;13.340;2022-09-30T09:42:04;24.90;92.10
16578;DHT22;8401;52.528;13.340;2022-09-30T09:47:11;23.30;94.40
16578;DHT22;8401;52.528;13.340;2022-09-30T09:49:58;22.50;96.10
16578;DHT22;8401;52.528;13.340;2022-09-30T09:52:43;24.80;93.90
16578;DHT22;8401;52.528;13.340;2022-09-30T09:55:16;26.10;90.60
16578;DHT22;8401;52.528;13.340;2022-09-30T09:57:43;26.50;88.40
16578;DHT22;8401;52.528;13.340;2022-09-30T10:00:27;24.20;90.10
16578;DHT22;8401;52.528;13.340;2022-09-30T10:03:16;23.60;91.60
16578;DHT22;8401;52.528;13.340;2022-09-30T10:08:27;25.40;90.90
16578;DHT22;8401;52.528;13.340;2022-09-30T10:10:57;24.80;88.80
16578;DHT22;8401;52.528;13.340;2022-09-30T10:13:46;24.80;88.70
16578;DHT22;8401;52.528;13.340;2022-09-30T10:16:30;24.50;90.00
16578;DHT22;8401;52.528;13.340;2022-09-30T10:18:58;24.50;88.10
16578;DHT22;8401;52.528;13.340;2022-09-30T10:21:26;24.80;89.90
16578;DHT22;8401;52.528;13.340;2022-09-30T10:23:52;26.40;84.60
16578;DHT22;8401;52.528;13.340;2022-09-30T10:26:23;27.70;82.40
16578;DHT22;8401;52.528;13.340;2022-09-30T10:28:59;25.80;82.50
16578;DHT22;8401;52.528;13.340;2022-09-30T10:31:31;25.80;83.50
16578;DHT22;8401;52.528;13.340;2022-09-30T10:34:00;25.80;82.20
16578;DHT22;8401;52.528;13.340;2022-09-30T10:36:45;27.10;81.60
16578;DHT22;8401;52.528;13.340;2022-09-30T10:42:18;28.00;75.70
16578;DHT22;8401;52.528;13.340;2022-09-30T10:44:52;27.10;75.60
16578;DHT22;8401;52.528;13.340;2022-09-30T10:47:22;25.50;75.00
16578;DHT22;8401;52.528;13.340;2022-09-30T10:52:22;25.00;81.40
16578;DHT22;8401;52.528;13.340;2022-09-30T10:54:49;27.80;76.60
16578;DHT22;8401;52.528;13.340;2022-09-30T10:57:26;27.70;74.10
16578;DHT22;8401;52.528;13.340;2022-09-30T11:00:09;27.10;73.70
16578;DHT22;8401;52.528;13.340;2022-09-30T11:02:41;27.60;75.40
16578;DHT22;8401;52.528;13.340;2022-09-30T11:05:17;26.00;74.40
16578;DHT22;8401;52.528;13.340;2022-09-30T11:08:18;24.80;76.60
16578;DHT22;8401;52.528;13.340;2022-09-30T11:13:45;22.80;81.70
16578;DHT22;8401;52.528;13.340;2022-09-30T11:16:36;21.90;84.80
16578;DHT22;8401;52.528;13.340;2022-09-30T11:24:46;28.90;72.70
16578;DHT22;8401;52.528;13.340;2022-09-30T11:30:35;27.60;70.80
16578;DHT22;8401;52.528;13.340;2022-09-30T11:43:27;22.20;81.30
16578;DHT22;8401;52.528;13.340;2022-09-30T11:51:17;20.00;90.50
16578;DHT22;8401;52.528;13.340;2022-09-30T11:58:49;20.10;91.70
16578;DHT22;8401;52.528;13.340;2022-09-30T12:01:24;19.70;91.70
16578;DHT22;8401;52.528;13.340;2022-09-30T12:04:33;19.40;91.60
16578;DHT22;8401;52.528;13.340;2022-09-30T12:07:16;19.50;92.20
16578;DHT22;8401;52.528;13.340;2022-09-30T12:09:46;19.20;92.90
16578;DHT22;8401;52.528;13.340;2022-09-30T12:12:15;19.40;93.00
16578;DHT22;8401;52.528;13.340;2022-09-30T12:15:00;19.20;92.50
16578;DHT22;8401;52.528;13.340;2022-09-30T12:17:39;19.10;93.10
16578;DHT22;8401;52.528;13.340;2022-09-30T12:20:22;19.40;92.00
16578;DHT22;8401;52.528;13.340;2022-09-30T12:22:53;19.60;91.50
16578;DHT22;8401;52.528;13.340;2022-09-30T12:25:26;19.80;91.60
16578;DHT22;8401;52.528;13.340;2022-09-30T12:46:08;18.40;94.70
16578;DHT22;8401;52.528;13.340;2022-09-30T12:51:30;18.20;95.70
16578;DHT22;8401;52.528;13.340;2022-09-30T12:54:21;18.70;95.30
16578;DHT22;8401;52.528;13.340;2022-09-30T12:56:46;18.80;92.40
16578;DHT22;8401;52.528;13.340;2022-09-30T12:59:24;18.90;93.50
16578;DHT22;8401;52.528;13.340;2022-09-30T13:01:50;18.80;94.20
16578;DHT22;8401;52.528;13.340;2022-09-30T13:09:37;18.20;95.90
16578;DHT22;8401;52.528;13.340;2022-09-30T13:15:38;18.50;96.90
16578;DHT22;8401;52.528;13.340;2022-09-30T13:23:46;19.00;95.30
16578;DHT22;8401;52.528;13.340;2022-09-30T13:28:47;19.00;96.50
16578;DHT22;8401;52.528;13.340;2022-09-30T13:31:19;18.80;96.90
16578;DHT22;8401;52.528;13.340;2022-09-30T13:33:46;18.60;97.30
16578;DHT22;8401;52.528;13.340;2022-09-30T13:42:24;18.50;98.10
16578;DHT22;8401;52.528;13.340;2022-09-30T13:45:03;18.60;97.60
16578;DHT22;8401;52.528;13.340;2022-09-30T13:47:42;18.70;97.40
16578;DHT22;8401;52.528;13.340;2022-09-30T13:51:00;19.10;95.80
16578;DHT22;8401;52.528;13.340;2022-09-30T13:53:24;19.20;95.60
16578;DHT22;8401;52.528;13.340;2022-09-30T13:55:52;18.90;95.00
16578;DHT22;8401;52.528;13.340;2022-09-30T13:58:57;18.70;96.00
16578;DHT22;8401;52.528;13.340;2022-09-30T14:07:29;18.50;97.70
16578;DHT22;8401;52.528;13.340;2022-09-30T14:10:06;18.40;97.40
16578;DHT22;8401;52.528;13.340;2022-09-30T14:15:25;18.60;96.30
16578;DHT22;8401;52.528;13.340;2022-09-30T14:19:18;18.80;95.90
16578;DHT22;8401;52.528;13.340;2022-09-30T14:21:43;18.20;96.60
16578;DHT22;8401;52.528;13.340;2022-09-30T14:24:15;18.00;96.10
16578;DHT22;8401;52.528;13.340;2022-09-30T14:32:12;18.50;96.30
16578;DHT22;8401;52.528;13.340;2022-09-30T14:34:39;18.70;96.20
16578;DHT22;8401;52.528;13.340;2022-09-30T14:37:05;18.50;96.50
16578;DHT22;8401;52.528;13.340;2022-09-30T14:39:37;19.00;95.50
16578;DHT22;8401;52.528;13.340;2022-09-30T14:42:03;18.90;95.50
16578;DHT22;8401;52.528;13.340;2022-09-30T14:44:32;19.00;95.20
16578;DHT22;8401;52.528;13.340;2022-09-30T14:46:59;18.90;94.40
16578;DHT22;8401;52.528;13.340;2022-09-30T14:49:28;19.10;94.00
16578;DHT22;8401;52.528;13.340;2022-09-30T14:52:01;19.30;94.10
16578;DHT22;8401;52.528;13.340;2022-09-30T14:54:30;19.60;93.80
16578;DHT22;8401;52.528;13.340;2022-09-30T14:56:57;19.20;94.00
16578;DHT22;8401;52.528;13.340;2022-09-30T14:59:26;18.90;94.80
16578;DHT22;8401;52.528;13.340;2022-09-30T15:01:59;18.50;95.50
16578;DHT22;8401;52.528;13.340;2022-09-30T15:04:32;18.40;96.20
16578;DHT22;8401;52.528;13.340;2022-09-30T15:07:00;18.20;97.00
16578;DHT22;8401;52.528;13.340;2022-09-30T15:11:54;17.90;98.10
16578;DHT22;8401;52.528;13.340;2022-09-30T15:14:22;17.90;98.20
16578;DHT22;8401;52.528;13.340;2022-09-30T15:16:54;17.90;98.30
16578;DHT22;8401;52.528;13.340;2022-09-30T15:19:27;18.00;98.10
16578;DHT22;8401;52.528;13.340;2022-09-30T15:21:56;17.70;98.70
16578;DHT22;8401;52.528;13.340;2022-09-30T15:24:25;17.50;99.30
16578;DHT22;8401;52.528;13.340;2022-09-30T15:26:52;17.40;99.30
16578;DHT22;8401;52.528;13.340;2022-09-30T15:29:19;17.40;99.40
16578;DHT22;8401;52.528;13.340;2022-09-30T15:31:57;17.50;99.50
16578;DHT22;8401;52.528;13.340;2022-09-30T15:34:25;17.50;99.30
16578;DHT22;8401;52.528;13.340;2022-09-30T15:37:00;17.60;99.40
16578;DHT22;8401;52.528;13.340;2022-09-30T15:39:44;17.50;99.50
16578;DHT22;8401;52.528;13.340;2022-09-30T15:42:33;17.30;99.50
16578;DHT22;8401;52.528;13.340;2022-09-30T15:45:02;17.30;99.80
16578;DHT22;8401;52.528;13.340;2022-09-30T15:47:28;17.30;99.90
16578;DHT22;8401;52.528;13.340;2022-09-30T15:49:54;17.10;99.90
16578;DHT22;8401;52.528;13.340;2022-09-30T15:54:45;17.00;99.90
16578;DHT22;8401;52.528;13.340;2022-09-30T15:57:38;17.00;99.90
16578;DHT22;8401;52.528;13.340;2022-09-30T16:00:05;16.90;99.90
16578;DHT22;8401;52.528;13.340;2022-09-30T16:02:33;16.70;99.90
16578;DHT22;8401;52.528;13.340;2022-09-30T16:05:00;16.50;99.90
16578;DHT22;8401;52.528;13.340;2022-09-30T16:07:30;16.50;99.90
16578;DHT22;8401;52.528;13.340;2022-09-30T16:09:56;16.40;99.90
16578;DHT22;8401;52.528;13.340;2022-09-30T16:12:27;16.30;99.90
16578;DHT22;8401;52.528;13.340;2022-09-30T16:15:08;16.30;99.90
16578;DHT22;8401;52.528;13.340;2022-09-30T16:17:44;16.20;99.90
16578;DHT22;8401;52.528;13.340;2022-09-30T16:25:24;16.30;99.90
16578;DHT22;8401;52.528;13.340;2022-09-30T16:30:24;16.00;99.90
16578;DHT22;8401;52.528;13.340;2022-09-30T16:32:52;16.00;99.90
16578;DHT22;8401;52.528;13.340;2022-09-30T16:35:21;16.10;99.90
16578;DHT22;8401;52.528;13.340;2022-09-30T16:37:47;15.90;99.90
16578;DHT22;8401;52.528;13.340;2022-09-30T16:40:20;15.80;99.90
16578;DHT22;8401;52.528;13.340;2022-09-30T16:42:47;15.70;99.90
16578;DHT22;8401;52.528;13.340;2022-09-30T16:45:13;15.60;99.90
16578;DHT22;8401;52.528;13.340;2022-09-30T16:47:40;15.40;99.90
16578;DHT22;8401;52.528;13.340;2022-09-30T16:52:58;15.40;99.90
16578;DHT22;8401;52.528;13.340;2022-09-30T16:55:25;15.40;99.90
16578;DHT22;8401;52.528;13.340;2022-09-30T16:57:52;15.30;99.90
16578;DHT22;8401;52.528;13.340;2022-09-30T17:00:19;15.20;99.90
16578;DHT22;8401;52.528;13.340;2022-09-30T17:02:47;15.10;99.90
16578;DHT22;8401;52.528;13.340;2022-09-30T17:05:18;15.00;99.90
16578;DHT22;8401;52.528;13.340;2022-09-30T17:07:53;15.00;99.90
16578;DHT22;8401;52.528;13.340;2022-09-30T17:10:23;15.00;99.90
16578;DHT22;8401;52.528;13.340;2022-09-30T17:12:49;15.00;99.90
16578;DHT22;8401;52.528;13.340;2022-09-30T17:15:18;14.90;99.90
16578;DHT22;8401;52.528;13.340;2022-09-30T17:17:45;14.90;99.90
16578;DHT22;8401;52.528;13.340;2022-09-30T17:20:11;14.80;99.90
16578;DHT22;8401;52.528;13.340;2022-09-30T17:22:37;14.70;99.90
16578;DHT22;8401;52.528;13.340;2022-09-30T17:25:03;14.60;99.90
16578;DHT22;8401;52.528;13.340;2022-09-30T17:27:28;14.60;99.90
16578;DHT22;8401;52.528;13.340;2022-09-30T17:29:54;14.50;99.90
16578;DHT22;8401;52.528;13.340;2022-09-30T17:32:20;14.50;99.90
16578;DHT22;8401;52.528;13.340;2022-09-30T17:34:45;14.60;99.90
16578;DHT22;8401;52.528;13.340;2022-09-30T17:37:11;14.50;99.90
16578;DHT22;8401;52.528;13.340;2022-09-30T17:39:37;14.40;99.90
16578;DHT22;8401;52.528;13.340;2022-09-30T17:42:03;14.30;99.90
16578;DHT22;8401;52.528;13.340;2022-09-30T17:44:47;14.30;99.90
16578;DHT22;8401;52.528;13.340;2022-09-30T17:47:13;14.20;99.90
16578;DHT22;8401;52.528;13.340;2022-09-30T17:49:38;14.20;99.90
16578;DHT22;8401;52.528;13.340;2022-09-30T17:52:04;14.30;99.90
16578;DHT22;8401;52.528;13.340;2022-09-30T17:54:30;14.50;99.90
16578;DHT22;8401;52.528;13.340;2022-09-30T17:56:56;14.20;99.90
16578;DHT22;8401;52.528;13.340;2022-09-30T17:59:23;14.40;99.90
16578;DHT22;8401;52.528;13.340;2022-09-30T18:01:50;14.40;99.90
16578;DHT22;8401;52.528;13.340;2022-09-30T18:04:16;14.40;99.90
16578;DHT22;8401;52.528;13.340;2022-09-30T18:06:46;14.50;99.90
16578;DHT22;8401;52.528;13.340;2022-09-30T18:09:11;14.40;99.90
16578;DHT22;8401;52.528;13.340;2022-09-30T18:11:37;14.20;99.90
16578;DHT22;8401;52.528;13.340;2022-09-30T18:14:02;14.10;99.90
16578;DHT22;8401;52.528;13.340;2022-09-30T18:16:30;14.20;99.90
16578;DHT22;8401;52.528;13.340;2022-09-30T18:18:59;14.00;99.90
16578;DHT22;8401;52.528;13.340;2022-09-30T18:21:25;14.30;99.90
16578;DHT22;8401;52.528;13.340;2022-09-30T18:23:51;14.30;99.90
16578;DHT22;8401;52.528;13.340;2022-09-30T18:26:16;14.20;99.90
16578;DHT22;8401;52.528;13.340;2022-09-30T18:28:42;14.30;99.90
16578;DHT22;8401;52.528;13.340;2022-09-30T18:31:09;14.10;99.90
16578;DHT22;8401;52.528;13.340;2022-09-30T18:33:35;13.90;99.90
16578;DHT22;8401;52.528;13.340;2022-09-30T18:36:02;13.90;99.90
16578;DHT22;8401;52.528;13.340;2022-09-30T18:38:34;13.90;99.90
16578;DHT22;8401;52.528;13.340;2022-09-30T18:41:00;14.10;99.90
16578;DHT22;8401;52.528;13.340;2022-09-30T18:43:25;14.30;99.90
16578;DHT22;8401;52.528;13.340;2022-09-30T18:45:52;14.30;99.90
16578;DHT22;8401;52.528;13.340;2022-09-30T18:48:18;14.30;99.90
16578;DHT22;8401;52.528;13.340;2022-09-30T18:50:44;14.30;99.90
16578;DHT22;8401;52.528;13.340;2022-09-30T18:53:11;14.20;99.90
16578;DHT22;8401;52.528;13.340;2022-09-30T18:55:37;14.10;99.90
16578;DHT22;8401;52.528;13.340;2022-09-30T18:58:03;14.00;99.90
16578;DHT22;8401;52.528;13.340;2022-09-30T19:00:28;13.90;99.90
16578;DHT22;8401;52.528;13.340;2022-09-30T19:02:55;13.80;99.90
16578;DHT22;8401;52.528;13.340;2022-09-30T19:05:21;13.90;99.90
16578;DHT22;8401;52.528;13.340;2022-09-30T19:07:47;13.60;99.90
16578;DHT22;8401;52.528;13.340;2022-09-30T19:10:13;13.60;99.90